This is the latest recevied weather packets stored in our database for station/object N1ORT. If no packets are shown the sender has not sent any weather packets the latest 10 day(s).
| Time | Temp. | Humidity | Pressure | Rain* | Wind** | Luminosity | Snow |
|---|---|---|---|---|---|---|---|
| 1777752861 | 10.56° C | 85% | 1008.4 hPa | 0 mm | - | 73 W/m² | - |
| 1777752558 | 10.56° C | 84% | 1008.4 hPa | 0 mm | - | 84 W/m² | - |
| 1777752253 | 10.56° C | 84% | 1008.6 hPa | 0 mm | - | 45 W/m² | - |
| 1777751952 | 10.56° C | 84% | 1008.6 hPa | 0 mm | - | 47 W/m² | - |
| 1777751648 | 10.56° C | 83% | 1008.6 hPa | 0 mm | - | 32 W/m² | - |
| 1777751345 | 11.11° C | 82% | 1008.5 hPa | 0 mm | - | 15 W/m² | - |
| 1777751042 | 11.11° C | 81% | 1008.4 hPa | 0 mm | - | 29 W/m² | - |
| 1777750737 | 11.67° C | 77% | 1008.6 hPa | 0 mm | - | 23 W/m² | - |
| 1777750435 | 12.78° C | 71% | 1008.7 hPa | 0 mm | - | 27 W/m² | - |
| 1777750130 | 13.33° C | 65% | 1008.4 hPa | 0 mm | - | 58 W/m² | - |
| 1777749827 | 13.33° C | 63% | 1008.3 hPa | 0 mm | - | 65 W/m² | - |
| 1777749524 | 13.33° C | 65% | 1008.2 hPa | 0 mm | - | 127 W/m² | - |
| 1777749223 | 13.33° C | 64% | 1008.4 hPa | 0 mm | - | 106 W/m² | - |
| 1777748919 | 13.33° C | 65% | 1008.4 hPa | 0 mm | - | 161 W/m² | - |
| 1777748617 | 13.89° C | 64% | 1008.5 hPa | 0 mm | - | 135 W/m² | - |
| 1777748312 | 13.89° C | 65% | 1008.6 hPa | 0 mm | - | 199 W/m² | - |
| 1777748008 | 13.89° C | 65% | 1008.3 hPa | 0 mm | - | 245 W/m² | - |
| 1777747706 | 13.33° C | 67% | 1008.6 hPa | 0 mm | - | 227 W/m² | - |
| 1777747401 | 13.33° C | 67% | 1008.5 hPa | 0 mm | - | 204 W/m² | - |
| 1777747098 | 13.33° C | 66% | 1008.6 hPa | 0 mm | - | 140 W/m² | - |
| 1777746794 | 13.33° C | 67% | 1008.7 hPa | 0 mm | - | 159 W/m² | - |
| 1777746489 | 13.33° C | 65% | 1008.9 hPa | 0 mm | - | 201 W/m² | - |
| 1777746185 | 13.33° C | 67% | 1008.8 hPa | 0 mm | - | 97 W/m² | - |
| 1777745882 | 13.33° C | 65% | 1008.7 hPa | 0 mm | - | 150 W/m² | - |
| 1777745575 | 13.33° C | 67% | 1008.7 hPa | 0 mm | - | 160 W/m² | - |
* Rain latest hour (hover to see other rain measurements)
** Current wind speed in m/s (hover to see current wind gust speed)